createdAt,value
2022-11-09T00:03:33.537Z,10.76
2022-11-09T00:08:34.372Z,10.68
2022-11-09T00:13:37.657Z,10.63
2022-11-09T00:18:40.269Z,10.65
2022-11-09T00:23:41.290Z,10.68
2022-11-09T00:28:42.654Z,10.60
2022-11-09T00:33:48.185Z,10.58
2022-11-09T00:38:50.805Z,10.59
2022-11-09T00:43:52.398Z,10.44
2022-11-09T00:48:55.785Z,10.43
2022-11-09T00:53:58.501Z,10.38
2022-11-09T00:58:59.322Z,10.32
2022-11-09T01:04:01.793Z,10.23
2022-11-09T01:09:02.766Z,10.19
2022-11-09T01:14:05.307Z,10.14
2022-11-09T01:19:07.686Z,10.01
2022-11-09T01:24:08.654Z,9.99
2022-11-09T01:29:09.508Z,9.93
2022-11-09T01:34:11.652Z,9.99
2022-11-09T01:39:12.801Z,9.93
2022-11-09T01:44:15.886Z,9.89
2022-11-09T01:49:23.925Z,9.96
2022-11-09T01:54:30.082Z,9.91
2022-11-09T01:59:37.175Z,9.85
2022-11-09T02:04:44.523Z,9.81
2022-11-09T02:09:50.448Z,9.79
2022-11-09T02:14:55.780Z,9.80
2022-11-09T02:19:58.918Z,9.79
2022-11-09T02:25:01.241Z,9.79
2022-11-09T02:30:03.635Z,9.74
2022-11-09T02:35:05.313Z,9.69
2022-11-09T02:40:12.868Z,9.75
2022-11-09T02:45:13.757Z,9.73
2022-11-09T02:50:16.166Z,9.76
2022-11-09T02:55:18.600Z,9.72
2022-11-09T03:00:19.941Z,9.68
2022-11-09T03:05:20.984Z,9.61
2022-11-09T03:10:24.076Z,9.57
2022-11-09T03:15:25.573Z,9.52
2022-11-09T03:20:26.442Z,9.55
2022-11-09T03:25:29.241Z,9.33
2022-11-09T03:30:33.154Z,9.29
2022-11-09T03:35:34.322Z,9.30
2022-11-09T03:40:36.977Z,9.40
2022-11-09T03:45:38.102Z,9.39
2022-11-09T03:50:40.597Z,9.29
2022-11-09T03:55:42.907Z,9.26
2022-11-09T04:00:43.863Z,9.34
2022-11-09T04:05:44.646Z,9.29
2022-11-09T04:10:46.931Z,9.29
2022-11-09T04:15:47.714Z,9.33
2022-11-09T04:20:48.587Z,9.19
2022-11-09T04:25:50.867Z,9.18
2022-11-09T04:30:54.671Z,9.12
2022-11-09T04:35:55.515Z,9.04
2022-11-09T04:41:01.518Z,9.04
2022-11-09T04:46:02.438Z,9.24
2022-11-09T04:51:04.660Z,9.29
2022-11-09T04:56:08.250Z,9.39
2022-11-09T05:01:12.103Z,9.27
2022-11-09T05:06:30.298Z,9.34
2022-11-09T05:11:33.386Z,9.35
2022-11-09T05:16:35.301Z,9.26
2022-11-09T05:21:36.135Z,9.32
2022-11-09T05:26:41.341Z,9.42
2022-11-09T05:31:46.475Z,9.52
2022-11-09T05:36:50.081Z,9.51
2022-11-09T05:41:52.256Z,9.52
2022-11-09T05:46:53.081Z,9.53
2022-11-09T05:51:54.121Z,9.54
2022-11-09T05:56:56.268Z,9.52
2022-11-09T06:01:57.395Z,9.52
2022-11-09T06:06:58.486Z,9.57
2022-11-09T06:12:00.702Z,9.60
2022-11-09T06:17:01.529Z,9.63
2022-11-09T06:22:02.354Z,9.57
2022-11-09T06:27:04.906Z,9.64
2022-11-09T06:32:06.513Z,9.72
2022-11-09T06:37:07.359Z,9.81
2022-11-09T06:42:09.567Z,9.78
2022-11-09T06:47:10.392Z,9.83
2022-11-09T06:52:11.252Z,9.80
2022-11-09T06:57:13.375Z,9.87
2022-11-09T07:02:16.913Z,9.86
2022-11-09T07:07:17.953Z,9.91
2022-11-09T07:12:20.160Z,9.98
2022-11-09T07:17:20.939Z,10.02
2022-11-09T07:22:21.964Z,10.03
2022-11-09T07:27:27.923Z,9.99
2022-11-09T07:33:01.838Z,10.12
2022-11-09T07:37:49.955Z,10.26
2022-11-09T07:42:52.103Z,10.35
2022-11-09T07:47:56.685Z,10.51
2022-11-09T07:52:57.814Z,10.50
2022-11-09T07:58:01.138Z,10.50
2022-11-09T08:03:02.311Z,10.24
2022-11-09T08:08:05.341Z,10.34
2022-11-09T08:13:10.591Z,10.50
2022-11-09T08:18:14.126Z,10.46
2022-11-09T08:23:16.206Z,10.36
2022-11-09T08:28:18.742Z,10.26
2022-11-09T08:33:19.896Z,10.40
2022-11-09T08:38:21.030Z,10.30
2022-11-09T08:43:23.326Z,10.52
2022-11-09T08:48:24.261Z,10.50
2022-11-09T08:53:26.940Z,10.54
2022-11-09T08:58:29.083Z,10.83
2022-11-09T09:03:29.826Z,10.89
2022-11-09T09:08:30.656Z,10.93
2022-11-09T09:13:35.078Z,11.03
2022-11-09T09:18:38.680Z,11.19
2022-11-09T09:23:39.480Z,10.98
2022-11-09T09:28:41.769Z,11.06
2022-11-09T09:33:42.579Z,10.99
2022-11-09T09:38:43.347Z,10.92
2022-11-09T09:43:48.984Z,10.88
2022-11-09T09:48:54.599Z,10.89
2022-11-09T09:54:01.735Z,10.98
2022-11-09T09:59:08.381Z,11.16
2022-11-09T10:04:17.983Z,11.15
2022-11-09T10:09:28.843Z,11.09
2022-11-09T10:14:47.843Z,11.21
2022-11-09T10:20:03.718Z,11.22
2022-11-09T10:25:27.873Z,11.24
2022-11-09T10:30:35.734Z,11.35
2022-11-09T10:35:39.007Z,11.46
2022-11-09T10:40:45.114Z,11.46
2022-11-09T10:46:07.862Z,11.52
2022-11-09T10:51:34.480Z,11.48
2022-11-09T10:57:06.710Z,11.42
2022-11-09T11:02:47.868Z,11.59
2022-11-09T11:08:23.059Z,11.58
2022-11-09T11:13:42.672Z,11.57
2022-11-09T11:19:04.624Z,11.53
2022-11-09T11:24:24.295Z,11.55
2022-11-09T11:29:51.705Z,11.76
2022-11-09T11:35:17.719Z,12.01
2022-11-09T11:40:47.130Z,11.94
2022-11-09T11:46:15.669Z,11.94
2022-11-09T11:51:46.605Z,12.00
2022-11-09T11:57:15.682Z,12.13
2022-11-09T12:03:11.861Z,12.28
2022-11-09T12:08:44.590Z,12.02
2022-11-09T12:14:16.729Z,11.98
2022-11-09T12:19:47.246Z,11.62
2022-11-09T12:25:18.187Z,11.71
2022-11-09T12:30:49.386Z,11.50
2022-11-09T12:36:17.048Z,11.44
2022-11-09T12:41:39.676Z,11.52
2022-11-09T12:47:04.425Z,11.41
2022-11-09T12:52:28.409Z,11.38
2022-11-09T12:57:49.723Z,11.37
2022-11-09T13:03:21.020Z,11.42
2022-11-09T13:08:42.216Z,11.84
2022-11-09T13:14:33.826Z,11.79
2022-11-09T13:19:55.357Z,11.74
2022-11-09T13:25:47.242Z,11.81
2022-11-09T13:31:10.793Z,11.79
2022-11-09T13:36:30.012Z,11.79
2022-11-09T13:41:49.207Z,11.74
2022-11-09T13:47:23.302Z,11.82
2022-11-09T13:52:52.084Z,11.74
2022-11-09T13:58:20.186Z,11.79
2022-11-09T14:03:41.036Z,11.63
2022-11-09T14:09:02.107Z,11.40
2022-11-09T14:14:47.920Z,11.35
2022-11-09T14:20:20.330Z,11.31
2022-11-09T14:25:39.765Z,11.20
2022-11-09T14:30:59.435Z,11.02
2022-11-09T14:36:19.842Z,10.84
2022-11-09T14:41:39.432Z,10.76
2022-11-09T14:46:59.172Z,10.71
2022-11-09T14:52:27.319Z,10.59
2022-11-09T14:57:48.752Z,10.33
2022-11-09T15:03:26.577Z,10.07
2022-11-09T15:08:55.279Z,10.02
2022-11-09T15:14:23.593Z,9.90
2022-11-09T15:19:51.380Z,9.90
2022-11-09T15:25:24.148Z,9.77
2022-11-09T15:30:46.737Z,9.66
2022-11-09T15:36:20.335Z,9.75
2022-11-09T15:41:41.468Z,9.58
2022-11-09T15:47:02.484Z,9.53
2022-11-09T15:52:21.426Z,9.39
2022-11-09T15:57:42.439Z,9.33
2022-11-09T16:03:01.520Z,9.66
2022-11-09T16:08:21.215Z,9.88
2022-11-09T16:13:42.175Z,9.93
2022-11-09T16:19:01.780Z,9.95
2022-11-09T16:24:21.165Z,10.10
2022-11-09T16:29:41.844Z,10.07
2022-11-09T16:35:23.818Z,10.04
2022-11-09T16:40:42.070Z,9.91
2022-11-09T16:46:02.845Z,9.81
2022-11-09T16:51:22.910Z,9.81
2022-11-09T16:56:41.976Z,9.79
2022-11-09T17:02:02.956Z,10.18
2022-11-09T17:07:22.395Z,10.11
2022-11-09T17:12:41.740Z,10.10
2022-11-09T17:18:02.183Z,9.94
2022-11-09T17:23:21.639Z,9.99
2022-11-09T17:28:43.100Z,9.86
2022-11-09T17:34:04.192Z,9.86
2022-11-09T17:39:24.382Z,9.87
2022-11-09T17:44:43.485Z,9.94
2022-11-09T17:50:04.225Z,9.93
2022-11-09T17:55:23.840Z,9.94
2022-11-09T18:00:43.058Z,10.04
2022-11-09T18:06:03.601Z,9.99
2022-11-09T18:11:22.767Z,10.08
2022-11-09T18:16:41.906Z,10.13
2022-11-09T18:22:03.347Z,10.09
2022-11-09T18:27:29.923Z,10.13
2022-11-09T18:32:49.967Z,10.17
2022-11-09T18:38:13.252Z,10.15
2022-11-09T18:43:33.862Z,10.17
2022-11-09T18:48:54.463Z,10.24
2022-11-09T18:54:15.318Z,10.23
2022-11-09T18:59:37.799Z,10.22
2022-11-09T19:04:56.884Z,10.37
2022-11-09T19:10:17.569Z,10.37
2022-11-09T19:15:42.418Z,10.34
2022-11-09T19:21:02.877Z,10.33
2022-11-09T19:26:23.702Z,10.41
2022-11-09T19:31:44.517Z,10.37
2022-11-09T19:37:03.590Z,10.24
2022-11-09T19:42:24.236Z,10.20
2022-11-09T19:47:43.988Z,10.14
2022-11-09T19:53:03.656Z,10.10
2022-11-09T19:58:24.527Z,10.06
2022-11-09T20:03:44.060Z,10.05
2022-11-09T20:09:03.310Z,10.05
2022-11-09T20:14:24.149Z,10.03
2022-11-09T20:19:43.526Z,10.12
2022-11-09T20:25:03.344Z,10.01
2022-11-09T20:30:23.825Z,9.95
2022-11-09T20:35:46.835Z,9.95
2022-11-09T20:41:08.818Z,9.95
2022-11-09T20:46:35.432Z,9.97
2022-11-09T20:51:55.398Z,9.99
2022-11-09T20:57:14.857Z,10.02
2022-11-09T21:02:35.866Z,9.95
2022-11-09T21:07:55.127Z,10.04
2022-11-09T21:13:14.448Z,10.06
2022-11-09T21:18:35.742Z,10.04
2022-11-09T21:24:12.413Z,10.00
2022-11-09T21:29:49.224Z,10.02
2022-11-09T21:35:10.662Z,9.93
2022-11-09T21:40:29.914Z,9.94
2022-11-09T21:45:53.984Z,9.88
2022-11-09T21:51:14.595Z,9.82
2022-11-09T21:56:33.991Z,9.78
2022-11-09T22:01:53.309Z,9.74
2022-11-09T22:07:14.003Z,9.68
2022-11-09T22:12:51.098Z,9.76
2022-11-09T22:18:31.383Z,9.76
2022-11-09T22:23:51.884Z,9.73
2022-11-09T22:29:11.197Z,9.72
2022-11-09T22:34:30.901Z,9.76
2022-11-09T22:39:51.316Z,9.75
2022-11-09T22:45:11.241Z,9.78
2022-11-09T22:50:30.495Z,9.73
2022-11-09T22:55:54.570Z,9.68
2022-11-09T23:01:15.739Z,9.72
2022-11-09T23:06:35.799Z,9.76
2022-11-09T23:11:56.425Z,9.79
2022-11-09T23:17:29.679Z,9.80
2022-11-09T23:22:49.736Z,9.77
2022-11-09T23:28:12.911Z,9.80
2022-11-09T23:33:32.164Z,9.72
2022-11-09T23:38:51.927Z,9.80
2022-11-09T23:44:12.664Z,9.77
2022-11-09T23:49:32.097Z,9.85
2022-11-09T23:54:51.263Z,9.89
